sensor_id;sensor_type;location;lat;lon;timestamp;P1;durP1;ratioP1;P2;durP2;ratioP2
73693;SDS011;61997;53.974;11.670;2022-11-09T00:00:02;21.73;;;12.88;;
73693;SDS011;61997;53.974;11.670;2022-11-09T00:02:29;24.38;;;14.60;;
73693;SDS011;61997;53.974;11.670;2022-11-09T00:04:54;24.70;;;13.70;;
73693;SDS011;61997;53.974;11.670;2022-11-09T00:07:20;23.33;;;14.20;;
73693;SDS011;61997;53.974;11.670;2022-11-09T00:09:45;23.05;;;14.05;;
73693;SDS011;61997;53.974;11.670;2022-11-09T00:12:11;23.02;;;13.75;;
73693;SDS011;61997;53.974;11.670;2022-11-09T00:14:36;20.83;;;13.15;;
73693;SDS011;61997;53.974;11.670;2022-11-09T00:17:02;21.73;;;12.80;;
73693;SDS011;61997;53.974;11.670;2022-11-09T00:19:28;22.73;;;12.73;;
73693;SDS011;61997;53.974;11.670;2022-11-09T00:21:53;21.98;;;13.40;;
73693;SDS011;61997;53.974;11.670;2022-11-09T00:24:19;23.05;;;13.10;;
73693;SDS011;61997;53.974;11.670;2022-11-09T00:26:44;21.20;;;13.27;;
73693;SDS011;61997;53.974;11.670;2022-11-09T00:29:12;21.90;;;12.23;;
73693;SDS011;61997;53.974;11.670;2022-11-09T00:31:37;19.00;;;11.13;;
73693;SDS011;61997;53.974;11.670;2022-11-09T00:34:02;21.67;;;12.35;;
73693;SDS011;61997;53.974;11.670;2022-11-09T00:36:28;21.75;;;12.50;;
73693;SDS011;61997;53.974;11.670;2022-11-09T00:38:58;19.45;;;11.75;;
73693;SDS011;61997;53.974;11.670;2022-11-09T00:41:24;18.35;;;11.80;;
73693;SDS011;61997;53.974;11.670;2022-11-09T00:43:50;23.70;;;12.38;;
73693;SDS011;61997;53.974;11.670;2022-11-09T00:46:16;22.15;;;12.90;;
73693;SDS011;61997;53.974;11.670;2022-11-09T00:48:41;22.00;;;12.70;;
73693;SDS011;61997;53.974;11.670;2022-11-09T00:51:07;21.63;;;12.55;;
73693;SDS011;61997;53.974;11.670;2022-11-09T00:53:33;18.23;;;11.27;;
73693;SDS011;61997;53.974;11.670;2022-11-09T00:56:02;19.13;;;11.55;;
73693;SDS011;61997;53.974;11.670;2022-11-09T00:58:29;18.98;;;11.15;;
73693;SDS011;61997;53.974;11.670;2022-11-09T01:00:56;18.13;;;11.25;;
73693;SDS011;61997;53.974;11.670;2022-11-09T01:03:27;18.45;;;11.45;;
73693;SDS011;61997;53.974;11.670;2022-11-09T01:05:52;20.67;;;12.10;;
73693;SDS011;61997;53.974;11.670;2022-11-09T01:08:18;20.52;;;12.00;;
73693;SDS011;61997;53.974;11.670;2022-11-09T01:10:44;19.08;;;12.43;;
73693;SDS011;61997;53.974;11.670;2022-11-09T01:13:11;18.67;;;11.65;;
73693;SDS011;61997;53.974;11.670;2022-11-09T01:15:45;19.92;;;12.35;;
73693;SDS011;61997;53.974;11.670;2022-11-09T01:18:15;24.02;;;12.77;;
73693;SDS011;61997;53.974;11.670;2022-11-09T01:20:42;21.27;;;11.10;;
73693;SDS011;61997;53.974;11.670;2022-11-09T01:23:09;24.48;;;13.00;;
73693;SDS011;61997;53.974;11.670;2022-11-09T01:25:35;22.05;;;14.15;;
73693;SDS011;61997;53.974;11.670;2022-11-09T01:28:01;23.98;;;13.35;;
73693;SDS011;61997;53.974;11.670;2022-11-09T01:30:27;22.70;;;14.10;;
73693;SDS011;61997;53.974;11.670;2022-11-09T01:32:52;24.25;;;14.80;;
73693;SDS011;61997;53.974;11.670;2022-11-09T01:35:18;23.92;;;14.68;;
73693;SDS011;61997;53.974;11.670;2022-11-09T01:37:44;27.08;;;14.98;;
73693;SDS011;61997;53.974;11.670;2022-11-09T01:40:09;28.92;;;16.20;;
73693;SDS011;61997;53.974;11.670;2022-11-09T01:42:36;28.40;;;16.00;;
73693;SDS011;61997;53.974;11.670;2022-11-09T01:47:46;26.80;;;15.88;;
73693;SDS011;61997;53.974;11.670;2022-11-09T01:50:15;32.58;;;17.05;;
73693;SDS011;61997;53.974;11.670;2022-11-09T01:52:43;35.20;;;19.13;;
73693;SDS011;61997;53.974;11.670;2022-11-09T01:55:11;31.73;;;17.85;;
73693;SDS011;61997;53.974;11.670;2022-11-09T01:57:39;30.40;;;18.70;;
73693;SDS011;61997;53.974;11.670;2022-11-09T02:00:26;29.77;;;17.80;;
73693;SDS011;61997;53.974;11.670;2022-11-09T02:02:58;33.35;;;19.80;;
73693;SDS011;61997;53.974;11.670;2022-11-09T02:05:27;33.00;;;18.67;;
73693;SDS011;61997;53.974;11.670;2022-11-09T02:07:54;33.75;;;19.50;;
73693;SDS011;61997;53.974;11.670;2022-11-09T02:10:25;36.50;;;19.70;;
73693;SDS011;61997;53.974;11.670;2022-11-09T02:12:51;32.05;;;18.45;;
73693;SDS011;61997;53.974;11.670;2022-11-09T02:15:18;33.55;;;18.88;;
73693;SDS011;61997;53.974;11.670;2022-11-09T02:17:43;31.55;;;18.70;;
73693;SDS011;61997;53.974;11.670;2022-11-09T02:20:12;32.00;;;19.92;;
73693;SDS011;61997;53.974;11.670;2022-11-09T02:22:38;34.38;;;20.13;;
73693;SDS011;61997;53.974;11.670;2022-11-09T02:25:05;33.05;;;18.90;;
73693;SDS011;61997;53.974;11.670;2022-11-09T02:27:32;33.28;;;19.63;;
73693;SDS011;61997;53.974;11.670;2022-11-09T02:29:57;34.25;;;19.20;;
73693;SDS011;61997;53.974;11.670;2022-11-09T02:32:23;32.60;;;19.35;;
73693;SDS011;61997;53.974;11.670;2022-11-09T02:34:50;33.33;;;18.13;;
73693;SDS011;61997;53.974;11.670;2022-11-09T02:37:34;32.88;;;19.17;;
73693;SDS011;61997;53.974;11.670;2022-11-09T02:40:03;33.88;;;18.70;;
73693;SDS011;61997;53.974;11.670;2022-11-09T02:42:33;31.45;;;18.70;;
73693;SDS011;61997;53.974;11.670;2022-11-09T02:44:58;34.17;;;19.95;;
73693;SDS011;61997;53.974;11.670;2022-11-09T02:47:24;34.08;;;19.25;;
73693;SDS011;61997;53.974;11.670;2022-11-09T02:49:49;29.63;;;18.80;;
73693;SDS011;61997;53.974;11.670;2022-11-09T02:52:15;34.53;;;20.02;;
73693;SDS011;61997;53.974;11.670;2022-11-09T02:54:41;32.63;;;19.10;;
73693;SDS011;61997;53.974;11.670;2022-11-09T02:57:06;31.58;;;17.95;;
73693;SDS011;61997;53.974;11.670;2022-11-09T02:59:32;34.80;;;18.88;;
73693;SDS011;61997;53.974;11.670;2022-11-09T03:01:57;30.52;;;19.17;;
73693;SDS011;61997;53.974;11.670;2022-11-09T03:04:23;33.72;;;18.00;;
73693;SDS011;61997;53.974;11.670;2022-11-09T03:06:48;30.15;;;17.40;;
73693;SDS011;61997;53.974;11.670;2022-11-09T03:09:13;31.33;;;18.23;;
73693;SDS011;61997;53.974;11.670;2022-11-09T03:11:39;30.23;;;17.27;;
73693;SDS011;61997;53.974;11.670;2022-11-09T03:14:05;30.35;;;18.98;;
73693;SDS011;61997;53.974;11.670;2022-11-09T03:16:31;31.00;;;17.23;;
73693;SDS011;61997;53.974;11.670;2022-11-09T03:18:57;30.63;;;18.05;;
73693;SDS011;61997;53.974;11.670;2022-11-09T03:21:22;30.35;;;17.52;;
73693;SDS011;61997;53.974;11.670;2022-11-09T03:23:48;30.42;;;16.83;;
73693;SDS011;61997;53.974;11.670;2022-11-09T03:26:14;28.85;;;17.20;;
73693;SDS011;61997;53.974;11.670;2022-11-09T03:28:40;27.33;;;16.13;;
73693;SDS011;61997;53.974;11.670;2022-11-09T03:31:05;26.50;;;16.27;;
73693;SDS011;61997;53.974;11.670;2022-11-09T03:33:31;26.17;;;16.38;;
73693;SDS011;61997;53.974;11.670;2022-11-09T03:35:57;29.02;;;16.88;;
73693;SDS011;61997;53.974;11.670;2022-11-09T03:38:22;31.10;;;16.80;;
73693;SDS011;61997;53.974;11.670;2022-11-09T03:40:47;28.02;;;16.42;;
73693;SDS011;61997;53.974;11.670;2022-11-09T03:43:13;27.98;;;15.98;;
73693;SDS011;61997;53.974;11.670;2022-11-09T03:45:38;26.02;;;14.93;;
73693;SDS011;61997;53.974;11.670;2022-11-09T03:48:04;26.27;;;14.85;;
73693;SDS011;61997;53.974;11.670;2022-11-09T03:50:30;27.80;;;15.32;;
73693;SDS011;61997;53.974;11.670;2022-11-09T03:52:57;25.70;;;15.30;;
73693;SDS011;61997;53.974;11.670;2022-11-09T03:55:23;27.48;;;15.60;;
73693;SDS011;61997;53.974;11.670;2022-11-09T03:57:49;22.80;;;14.23;;
73693;SDS011;61997;53.974;11.670;2022-11-09T04:00:15;24.50;;;14.48;;
73693;SDS011;61997;53.974;11.670;2022-11-09T04:02:42;24.27;;;14.80;;
73693;SDS011;61997;53.974;11.670;2022-11-09T04:05:08;26.65;;;15.25;;
73693;SDS011;61997;53.974;11.670;2022-11-09T04:07:33;26.88;;;14.68;;
73693;SDS011;61997;53.974;11.670;2022-11-09T04:09:59;25.05;;;13.88;;
73693;SDS011;61997;53.974;11.670;2022-11-09T04:12:24;21.75;;;13.60;;
73693;SDS011;61997;53.974;11.670;2022-11-09T04:14:49;23.85;;;13.80;;
73693;SDS011;61997;53.974;11.670;2022-11-09T04:17:15;23.27;;;12.55;;
73693;SDS011;61997;53.974;11.670;2022-11-09T04:19:40;20.60;;;14.10;;
73693;SDS011;61997;53.974;11.670;2022-11-09T04:22:05;25.42;;;13.15;;
73693;SDS011;61997;53.974;11.670;2022-11-09T04:24:31;22.95;;;13.52;;
73693;SDS011;61997;53.974;11.670;2022-11-09T04:26:56;22.25;;;12.93;;
73693;SDS011;61997;53.974;11.670;2022-11-09T04:29:21;21.15;;;12.68;;
73693;SDS011;61997;53.974;11.670;2022-11-09T04:31:47;21.90;;;12.63;;
73693;SDS011;61997;53.974;11.670;2022-11-09T04:34:13;19.85;;;12.80;;
73693;SDS011;61997;53.974;11.670;2022-11-09T04:36:38;22.15;;;14.10;;
73693;SDS011;61997;53.974;11.670;2022-11-09T04:39:04;24.23;;;12.73;;
73693;SDS011;61997;53.974;11.670;2022-11-09T04:41:29;22.88;;;12.73;;
73693;SDS011;61997;53.974;11.670;2022-11-09T04:43:55;21.42;;;12.93;;
73693;SDS011;61997;53.974;11.670;2022-11-09T04:46:20;21.95;;;12.23;;
73693;SDS011;61997;53.974;11.670;2022-11-09T04:48:46;20.63;;;12.07;;
73693;SDS011;61997;53.974;11.670;2022-11-09T04:51:11;19.63;;;12.20;;
73693;SDS011;61997;53.974;11.670;2022-11-09T04:53:37;16.90;;;11.20;;
73693;SDS011;61997;53.974;11.670;2022-11-09T04:56:03;22.10;;;12.25;;
73693;SDS011;61997;53.974;11.670;2022-11-09T04:58:29;20.92;;;11.50;;
73693;SDS011;61997;53.974;11.670;2022-11-09T05:01:00;19.80;;;11.63;;
73693;SDS011;61997;53.974;11.670;2022-11-09T05:03:26;17.73;;;11.80;;
73693;SDS011;61997;53.974;11.670;2022-11-09T05:05:52;17.65;;;11.20;;
73693;SDS011;61997;53.974;11.670;2022-11-09T05:08:17;22.70;;;11.95;;
73693;SDS011;61997;53.974;11.670;2022-11-09T05:10:42;18.73;;;10.93;;
73693;SDS011;61997;53.974;11.670;2022-11-09T05:13:09;18.77;;;11.35;;
73693;SDS011;61997;53.974;11.670;2022-11-09T05:15:35;17.58;;;11.40;;
73693;SDS011;61997;53.974;11.670;2022-11-09T05:18:01;17.38;;;10.23;;
73693;SDS011;61997;53.974;11.670;2022-11-09T05:20:27;14.40;;;9.40;;
73693;SDS011;61997;53.974;11.670;2022-11-09T05:22:53;17.02;;;10.13;;
73693;SDS011;61997;53.974;11.670;2022-11-09T05:25:38;17.80;;;10.15;;
73693;SDS011;61997;53.974;11.670;2022-11-09T05:28:03;19.85;;;10.02;;
73693;SDS011;61997;53.974;11.670;2022-11-09T05:30:29;17.55;;;9.85;;
73693;SDS011;61997;53.974;11.670;2022-11-09T05:32:54;16.20;;;9.85;;
73693;SDS011;61997;53.974;11.670;2022-11-09T05:35:20;16.98;;;10.38;;
73693;SDS011;61997;53.974;11.670;2022-11-09T05:37:46;18.40;;;10.65;;
73693;SDS011;61997;53.974;11.670;2022-11-09T05:40:14;17.60;;;10.38;;
73693;SDS011;61997;53.974;11.670;2022-11-09T05:42:40;18.20;;;10.13;;
73693;SDS011;61997;53.974;11.670;2022-11-09T05:45:06;14.77;;;9.38;;
73693;SDS011;61997;53.974;11.670;2022-11-09T05:47:40;15.18;;;9.10;;
73693;SDS011;61997;53.974;11.670;2022-11-09T05:50:07;17.83;;;9.95;;
73693;SDS011;61997;53.974;11.670;2022-11-09T05:52:36;15.30;;;9.90;;
73693;SDS011;61997;53.974;11.670;2022-11-09T05:55:01;16.88;;;9.38;;
73693;SDS011;61997;53.974;11.670;2022-11-09T05:57:27;15.57;;;9.65;;
73693;SDS011;61997;53.974;11.670;2022-11-09T05:59:53;13.75;;;9.20;;
73693;SDS011;61997;53.974;11.670;2022-11-09T06:02:18;16.30;;;9.43;;
73693;SDS011;61997;53.974;11.670;2022-11-09T06:04:44;14.27;;;8.85;;
73693;SDS011;61997;53.974;11.670;2022-11-09T06:07:09;14.60;;;8.60;;
73693;SDS011;61997;53.974;11.670;2022-11-09T06:09:34;14.10;;;8.45;;
73693;SDS011;61997;53.974;11.670;2022-11-09T06:12:00;13.45;;;8.18;;
73693;SDS011;61997;53.974;11.670;2022-11-09T06:14:25;14.93;;;8.55;;
73693;SDS011;61997;53.974;11.670;2022-11-09T06:16:51;15.85;;;8.20;;
73693;SDS011;61997;53.974;11.670;2022-11-09T06:19:16;15.82;;;8.50;;
73693;SDS011;61997;53.974;11.670;2022-11-09T06:21:41;15.45;;;8.48;;
73693;SDS011;61997;53.974;11.670;2022-11-09T06:24:07;15.00;;;9.13;;
73693;SDS011;61997;53.974;11.670;2022-11-09T06:26:32;15.48;;;8.07;;
73693;SDS011;61997;53.974;11.670;2022-11-09T06:28:58;13.48;;;7.55;;
73693;SDS011;61997;53.974;11.670;2022-11-09T06:31:23;12.85;;;7.95;;
73693;SDS011;61997;53.974;11.670;2022-11-09T06:33:48;14.27;;;7.72;;
73693;SDS011;61997;53.974;11.670;2022-11-09T06:36:14;13.73;;;7.97;;
73693;SDS011;61997;53.974;11.670;2022-11-09T06:38:40;13.18;;;8.00;;
73693;SDS011;61997;53.974;11.670;2022-11-09T06:41:05;13.88;;;8.48;;
73693;SDS011;61997;53.974;11.670;2022-11-09T06:43:31;14.25;;;7.35;;
73693;SDS011;61997;53.974;11.670;2022-11-09T06:45:56;12.07;;;7.72;;
73693;SDS011;61997;53.974;11.670;2022-11-09T06:48:21;13.15;;;7.65;;
73693;SDS011;61997;53.974;11.670;2022-11-09T06:50:47;12.10;;;7.45;;
73693;SDS011;61997;53.974;11.670;2022-11-09T06:53:13;12.48;;;7.82;;
73693;SDS011;61997;53.974;11.670;2022-11-09T06:55:39;15.23;;;7.82;;
73693;SDS011;61997;53.974;11.670;2022-11-09T06:58:06;14.27;;;7.53;;
73693;SDS011;61997;53.974;11.670;2022-11-09T07:00:33;9.45;;;6.78;;
73693;SDS011;61997;53.974;11.670;2022-11-09T07:02:58;12.18;;;7.47;;
73693;SDS011;61997;53.974;11.670;2022-11-09T07:05:24;14.05;;;7.75;;
73693;SDS011;61997;53.974;11.670;2022-11-09T07:07:49;12.25;;;7.07;;
73693;SDS011;61997;53.974;11.670;2022-11-09T07:10:15;12.30;;;7.07;;
73693;SDS011;61997;53.974;11.670;2022-11-09T07:12:40;11.25;;;7.22;;
73693;SDS011;61997;53.974;11.670;2022-11-09T07:15:06;12.07;;;7.20;;
73693;SDS011;61997;53.974;11.670;2022-11-09T07:17:32;13.10;;;6.68;;
73693;SDS011;61997;53.974;11.670;2022-11-09T07:19:58;10.15;;;7.13;;
73693;SDS011;61997;53.974;11.670;2022-11-09T07:22:25;10.68;;;6.25;;
73693;SDS011;61997;53.974;11.670;2022-11-09T07:24:51;11.63;;;7.28;;
73693;SDS011;61997;53.974;11.670;2022-11-09T07:27:16;11.88;;;6.57;;
73693;SDS011;61997;53.974;11.670;2022-11-09T07:29:42;12.02;;;7.03;;
73693;SDS011;61997;53.974;11.670;2022-11-09T07:32:07;11.65;;;7.10;;
73693;SDS011;61997;53.974;11.670;2022-11-09T07:34:32;11.77;;;6.60;;
73693;SDS011;61997;53.974;11.670;2022-11-09T07:36:58;9.65;;;6.13;;
73693;SDS011;61997;53.974;11.670;2022-11-09T07:39:24;9.68;;;6.55;;
73693;SDS011;61997;53.974;11.670;2022-11-09T07:41:50;9.73;;;6.10;;
73693;SDS011;61997;53.974;11.670;2022-11-09T07:44:15;11.13;;;6.55;;
73693;SDS011;61997;53.974;11.670;2022-11-09T07:46:45;11.43;;;6.45;;
73693;SDS011;61997;53.974;11.670;2022-11-09T07:49:11;10.88;;;6.70;;
73693;SDS011;61997;53.974;11.670;2022-11-09T07:51:38;12.52;;;6.65;;
73693;SDS011;61997;53.974;11.670;2022-11-09T07:54:03;10.60;;;5.95;;
73693;SDS011;61997;53.974;11.670;2022-11-09T07:56:29;9.45;;;5.50;;
73693;SDS011;61997;53.974;11.670;2022-11-09T07:58:54;10.23;;;5.75;;
73693;SDS011;61997;53.974;11.670;2022-11-09T08:01:19;9.38;;;6.07;;
73693;SDS011;61997;53.974;11.670;2022-11-09T08:03:45;9.38;;;5.60;;
73693;SDS011;61997;53.974;11.670;2022-11-09T08:06:11;10.18;;;6.13;;
73693;SDS011;61997;53.974;11.670;2022-11-09T08:08:36;9.57;;;5.22;;
73693;SDS011;61997;53.974;11.670;2022-11-09T08:11:01;8.40;;;5.32;;
73693;SDS011;61997;53.974;11.670;2022-11-09T08:13:27;9.60;;;5.38;;
73693;SDS011;61997;53.974;11.670;2022-11-09T08:15:52;8.90;;;5.32;;
73693;SDS011;61997;53.974;11.670;2022-11-09T08:18:19;9.50;;;5.68;;
73693;SDS011;61997;53.974;11.670;2022-11-09T08:20:45;9.25;;;5.50;;
73693;SDS011;61997;53.974;11.670;2022-11-09T08:23:11;7.45;;;4.85;;
73693;SDS011;61997;53.974;11.670;2022-11-09T08:25:37;9.88;;;5.40;;
73693;SDS011;61997;53.974;11.670;2022-11-09T08:28:02;9.13;;;5.15;;
73693;SDS011;61997;53.974;11.670;2022-11-09T08:30:28;7.82;;;4.80;;
73693;SDS011;61997;53.974;11.670;2022-11-09T08:32:53;8.98;;;5.32;;
73693;SDS011;61997;53.974;11.670;2022-11-09T08:35:20;7.57;;;5.18;;
73693;SDS011;61997;53.974;11.670;2022-11-09T08:37:47;9.50;;;5.50;;
73693;SDS011;61997;53.974;11.670;2022-11-09T08:40:14;8.50;;;5.25;;
73693;SDS011;61997;53.974;11.670;2022-11-09T08:42:41;9.60;;;5.20;;
73693;SDS011;61997;53.974;11.670;2022-11-09T08:45:07;7.38;;;4.78;;
73693;SDS011;61997;53.974;11.670;2022-11-09T08:47:33;7.38;;;4.95;;
73693;SDS011;61997;53.974;11.670;2022-11-09T08:49:59;9.35;;;5.00;;
73693;SDS011;61997;53.974;11.670;2022-11-09T08:52:25;8.50;;;5.28;;
73693;SDS011;61997;53.974;11.670;2022-11-09T08:54:50;7.85;;;4.97;;
73693;SDS011;61997;53.974;11.670;2022-11-09T08:57:16;8.70;;;5.97;;
73693;SDS011;61997;53.974;11.670;2022-11-09T08:59:43;6.93;;;4.70;;
73693;SDS011;61997;53.974;11.670;2022-11-09T09:02:10;7.63;;;5.00;;
73693;SDS011;61997;53.974;11.670;2022-11-09T09:04:35;8.10;;;5.10;;
73693;SDS011;61997;53.974;11.670;2022-11-09T09:07:00;9.02;;;5.53;;
73693;SDS011;61997;53.974;11.670;2022-11-09T09:09:26;8.20;;;4.97;;
73693;SDS011;61997;53.974;11.670;2022-11-09T09:11:51;9.68;;;5.63;;
73693;SDS011;61997;53.974;11.670;2022-11-09T09:14:17;7.32;;;5.00;;
73693;SDS011;61997;53.974;11.670;2022-11-09T09:16:42;9.48;;;5.53;;
73693;SDS011;61997;53.974;11.670;2022-11-09T09:19:08;8.98;;;5.32;;
73693;SDS011;61997;53.974;11.670;2022-11-09T09:21:33;8.35;;;5.40;;
73693;SDS011;61997;53.974;11.670;2022-11-09T09:23:58;9.63;;;5.22;;
73693;SDS011;61997;53.974;11.670;2022-11-09T09:26:24;7.53;;;5.00;;
73693;SDS011;61997;53.974;11.670;2022-11-09T09:28:50;9.25;;;4.95;;
73693;SDS011;61997;53.974;11.670;2022-11-09T09:31:15;7.82;;;4.93;;
73693;SDS011;61997;53.974;11.670;2022-11-09T09:33:41;8.30;;;5.28;;
73693;SDS011;61997;53.974;11.670;2022-11-09T09:36:06;7.15;;;5.43;;
73693;SDS011;61997;53.974;11.670;2022-11-09T09:38:32;6.65;;;4.88;;
73693;SDS011;61997;53.974;11.670;2022-11-09T09:40:59;9.23;;;5.43;;
73693;SDS011;61997;53.974;11.670;2022-11-09T09:43:27;8.63;;;5.45;;
73693;SDS011;61997;53.974;11.670;2022-11-09T09:45:58;8.45;;;4.95;;
73693;SDS011;61997;53.974;11.670;2022-11-09T09:51:10;10.93;;;5.68;;
73693;SDS011;61997;53.974;11.670;2022-11-09T09:53:42;7.35;;;5.07;;
73693;SDS011;61997;53.974;11.670;2022-11-09T09:56:18;8.82;;;5.40;;
73693;SDS011;61997;53.974;11.670;2022-11-09T09:59:10;8.90;;;5.45;;
73693;SDS011;61997;53.974;11.670;2022-11-09T10:01:36;8.85;;;5.35;;
73693;SDS011;61997;53.974;11.670;2022-11-09T10:04:07;8.73;;;5.03;;
73693;SDS011;61997;53.974;11.670;2022-11-09T10:06:51;8.75;;;5.82;;
73693;SDS011;61997;53.974;11.670;2022-11-09T10:15:13;8.43;;;5.57;;
73693;SDS011;61997;53.974;11.670;2022-11-09T10:23:12;9.32;;;5.35;;
73693;SDS011;61997;53.974;11.670;2022-11-09T10:25:48;7.10;;;5.90;;
73693;SDS011;61997;53.974;11.670;2022-11-09T10:28:19;10.32;;;5.28;;
73693;SDS011;61997;53.974;11.670;2022-11-09T10:30:48;7.68;;;5.13;;
73693;SDS011;61997;53.974;11.670;2022-11-09T10:33:15;8.63;;;5.40;;
73693;SDS011;61997;53.974;11.670;2022-11-09T10:35:56;10.63;;;6.22;;
73693;SDS011;61997;53.974;11.670;2022-11-09T10:38:30;9.77;;;5.72;;
73693;SDS011;61997;53.974;11.670;2022-11-09T10:41:03;9.38;;;5.78;;
73693;SDS011;61997;53.974;11.670;2022-11-09T10:43:50;9.02;;;6.20;;
73693;SDS011;61997;53.974;11.670;2022-11-09T10:46:15;12.75;;;6.97;;
73693;SDS011;61997;53.974;11.670;2022-11-09T10:48:41;11.15;;;6.00;;
73693;SDS011;61997;53.974;11.670;2022-11-09T10:51:31;9.90;;;6.90;;
73693;SDS011;61997;53.974;11.670;2022-11-09T10:54:19;10.70;;;6.90;;
73693;SDS011;61997;53.974;11.670;2022-11-09T10:56:50;12.77;;;7.38;;
73693;SDS011;61997;53.974;11.670;2022-11-09T10:59:30;12.23;;;7.97;;
73693;SDS011;61997;53.974;11.670;2022-11-09T11:02:42;9.82;;;6.63;;
73693;SDS011;61997;53.974;11.670;2022-11-09T11:07:34;13.57;;;8.27;;
73693;SDS011;61997;53.974;11.670;2022-11-09T11:15:35;13.40;;;8.02;;
73693;SDS011;61997;53.974;11.670;2022-11-09T11:18:16;14.82;;;8.90;;
73693;SDS011;61997;53.974;11.670;2022-11-09T11:20:47;15.25;;;9.00;;
73693;SDS011;61997;53.974;11.670;2022-11-09T11:23:28;16.13;;;9.65;;
73693;SDS011;61997;53.974;11.670;2022-11-09T11:28:20;13.48;;;9.15;;
73693;SDS011;61997;53.974;11.670;2022-11-09T11:30:56;14.05;;;9.70;;
73693;SDS011;61997;53.974;11.670;2022-11-09T11:33:21;14.73;;;9.10;;
73693;SDS011;61997;53.974;11.670;2022-11-09T11:38:31;17.85;;;9.93;;
73693;SDS011;61997;53.974;11.670;2022-11-09T11:51:41;14.23;;;9.30;;
73693;SDS011;61997;53.974;11.670;2022-11-09T11:54:19;16.23;;;10.30;;
73693;SDS011;61997;53.974;11.670;2022-11-09T11:57:00;16.85;;;9.32;;
73693;SDS011;61997;53.974;11.670;2022-11-09T12:10:55;17.02;;;10.45;;
73693;SDS011;61997;53.974;11.670;2022-11-09T12:18:58;15.95;;;8.80;;
73693;SDS011;61997;53.974;11.670;2022-11-09T12:24:32;13.90;;;9.25;;
73693;SDS011;61997;53.974;11.670;2022-11-09T12:30:04;15.57;;;10.27;;
73693;SDS011;61997;53.974;11.670;2022-11-09T12:32:40;17.70;;;10.10;;
73693;SDS011;61997;53.974;11.670;2022-11-09T12:35:11;18.48;;;10.25;;
73693;SDS011;61997;53.974;11.670;2022-11-09T12:37:45;14.32;;;9.98;;
73693;SDS011;61997;53.974;11.670;2022-11-09T12:41:15;18.23;;;9.98;;
73693;SDS011;61997;53.974;11.670;2022-11-09T12:43:28;15.93;;;10.20;;
73693;SDS011;61997;53.974;11.670;2022-11-09T12:45:56;20.85;;;11.52;;
73693;SDS011;61997;53.974;11.670;2022-11-09T12:48:27;16.00;;;10.30;;
73693;SDS011;61997;53.974;11.670;2022-11-09T12:50:56;17.90;;;10.95;;
73693;SDS011;61997;53.974;11.670;2022-11-09T12:53:24;16.55;;;10.52;;
73693;SDS011;61997;53.974;11.670;2022-11-09T12:58:47;15.95;;;10.02;;
73693;SDS011;61997;53.974;11.670;2022-11-09T13:01:42;20.13;;;11.30;;
73693;SDS011;61997;53.974;11.670;2022-11-09T13:03:59;17.15;;;11.10;;
73693;SDS011;61997;53.974;11.670;2022-11-09T13:16:48;19.85;;;11.13;;
73693;SDS011;61997;53.974;11.670;2022-11-09T13:21:57;18.77;;;11.50;;
73693;SDS011;61997;53.974;11.670;2022-11-09T13:26:56;17.40;;;10.48;;
73693;SDS011;61997;53.974;11.670;2022-11-09T13:29:27;16.85;;;11.50;;
73693;SDS011;61997;53.974;11.670;2022-11-09T13:42:58;18.05;;;10.95;;
73693;SDS011;61997;53.974;11.670;2022-11-09T13:45:26;18.63;;;11.35;;
73693;SDS011;61997;53.974;11.670;2022-11-09T13:48:24;18.30;;;11.57;;
73693;SDS011;61997;53.974;11.670;2022-11-09T13:51:05;17.25;;;11.40;;
73693;SDS011;61997;53.974;11.670;2022-11-09T13:56:20;15.98;;;10.63;;
73693;SDS011;61997;53.974;11.670;2022-11-09T14:01:56;18.25;;;10.98;;
73693;SDS011;61997;53.974;11.670;2022-11-09T14:04:36;18.42;;;10.82;;
73693;SDS011;61997;53.974;11.670;2022-11-09T14:07:08;16.88;;;11.35;;
73693;SDS011;61997;53.974;11.670;2022-11-09T14:23:36;17.30;;;10.45;;
73693;SDS011;61997;53.974;11.670;2022-11-09T14:26:08;19.17;;;11.27;;
73693;SDS011;61997;53.974;11.670;2022-11-09T14:28:40;15.60;;;10.93;;
73693;SDS011;61997;53.974;11.670;2022-11-09T14:31:08;16.42;;;10.27;;
73693;SDS011;61997;53.974;11.670;2022-11-09T14:33:56;14.68;;;11.02;;
73693;SDS011;61997;53.974;11.670;2022-11-09T14:36:23;17.55;;;10.57;;
73693;SDS011;61997;53.974;11.670;2022-11-09T14:38:48;18.77;;;11.95;;
73693;SDS011;61997;53.974;11.670;2022-11-09T14:41:18;17.38;;;10.48;;
73693;SDS011;61997;53.974;11.670;2022-11-09T14:43:49;16.02;;;10.45;;
73693;SDS011;61997;53.974;11.670;2022-11-09T14:46:20;16.80;;;11.07;;
73693;SDS011;61997;53.974;11.670;2022-11-09T14:48:50;15.93;;;10.57;;
73693;SDS011;61997;53.974;11.670;2022-11-09T14:51:17;16.23;;;9.93;;
73693;SDS011;61997;53.974;11.670;2022-11-09T14:53:42;15.77;;;10.32;;
73693;SDS011;61997;53.974;11.670;2022-11-09T14:56:10;15.32;;;10.45;;
73693;SDS011;61997;53.974;11.670;2022-11-09T14:58:38;16.38;;;9.90;;
73693;SDS011;61997;53.974;11.670;2022-11-09T15:06:32;16.40;;;9.70;;
73693;SDS011;61997;53.974;11.670;2022-11-09T15:09:02;15.30;;;10.05;;
73693;SDS011;61997;53.974;11.670;2022-11-09T15:11:34;15.15;;;9.85;;
73693;SDS011;61997;53.974;11.670;2022-11-09T15:16:43;15.48;;;9.88;;
73693;SDS011;61997;53.974;11.670;2022-11-09T15:19:28;17.15;;;10.48;;
73693;SDS011;61997;53.974;11.670;2022-11-09T15:21:56;13.77;;;9.25;;
73693;SDS011;61997;53.974;11.670;2022-11-09T15:24:22;18.15;;;10.95;;
73693;SDS011;61997;53.974;11.670;2022-11-09T15:26:50;15.65;;;10.35;;
73693;SDS011;61997;53.974;11.670;2022-11-09T15:34:36;15.07;;;8.80;;
73693;SDS011;61997;53.974;11.670;2022-11-09T15:37:03;15.68;;;8.73;;
73693;SDS011;61997;53.974;11.670;2022-11-09T15:39:29;15.13;;;9.45;;
73693;SDS011;61997;53.974;11.670;2022-11-09T15:41:54;13.88;;;9.32;;
73693;SDS011;61997;53.974;11.670;2022-11-09T15:44:21;15.23;;;8.55;;
73693;SDS011;61997;53.974;11.670;2022-11-09T15:46:48;15.07;;;9.02;;
73693;SDS011;61997;53.974;11.670;2022-11-09T15:49:19;12.55;;;8.80;;
73693;SDS011;61997;53.974;11.670;2022-11-09T15:51:47;12.85;;;8.30;;
73693;SDS011;61997;53.974;11.670;2022-11-09T15:54:12;13.05;;;8.25;;
73693;SDS011;61997;53.974;11.670;2022-11-09T15:56:38;12.65;;;8.18;;
73693;SDS011;61997;53.974;11.670;2022-11-09T15:59:04;12.98;;;8.57;;
73693;SDS011;61997;53.974;11.670;2022-11-09T16:01:30;12.25;;;8.18;;
73693;SDS011;61997;53.974;11.670;2022-11-09T16:03:56;13.00;;;8.02;;
73693;SDS011;61997;53.974;11.670;2022-11-09T16:06:22;11.75;;;7.65;;
73693;SDS011;61997;53.974;11.670;2022-11-09T16:08:48;15.93;;;9.02;;
73693;SDS011;61997;53.974;11.670;2022-11-09T16:11:15;14.30;;;8.23;;
73693;SDS011;61997;53.974;11.670;2022-11-09T16:13:40;12.23;;;7.60;;
73693;SDS011;61997;53.974;11.670;2022-11-09T16:16:06;13.10;;;8.35;;
73693;SDS011;61997;53.974;11.670;2022-11-09T16:18:33;14.77;;;7.63;;
73693;SDS011;61997;53.974;11.670;2022-11-09T16:21:07;13.93;;;7.93;;
73693;SDS011;61997;53.974;11.670;2022-11-09T16:26:03;11.10;;;7.60;;
73693;SDS011;61997;53.974;11.670;2022-11-09T16:28:32;12.10;;;7.50;;
73693;SDS011;61997;53.974;11.670;2022-11-09T16:30:57;11.20;;;7.15;;